首页
METAR-TAF:

METAR-TAF

机场 :

Four Corners Regional Airport

Farmington, 新墨西哥州, 美国

纬度: 36-44-37N, 经度: 108-13-45W, 海拔: 1677米

当前天气观测

该预报发布于45分钟前的00:53 UTC
风速9节,风向西转西北
温度 36°C
湿度 5%
气压 1018 hPa
能見度: 16.1公里
天空无云

METAR: KFMN 130053Z 29009KT 10SM CLR 36/M10 A3005 RMK AO2 SLP100 T03611100

时间: 19:38 (01:38 UTC)

预报

该预报发布于2小时和11分钟前的23:27 UTC
预报有效从13日的 00点(UTC)到 13日的 24点(UTC)
风速10节,风向西,有时为20节阵风
能見度: 10公里
天空无云
从 13日的 0200点(UTC)
风速6节,风向西北
能見度: 10公里
天空无云
从 13日的 1100点(UTC)
风速6节,风向
能見度: 10公里
天空无云
从 13日的 2000点(UTC)
风速9节,风向西,有时为16节阵风
能見度: 10公里
少量云层高于15000英尺

TAF: KFMN 122327Z 1300/1324 28010G20KT P6SM SKC FM130200 31006KT P6SM SKC FM131100 08006KT P6SM SKC FM132000 28009G16KT P6SM FEW150

超过4000个机场的气象观测和天气预报(METAR&TAF报告)。

可查询的气象台以黄色和红色小点在地图上表示。

将鼠标移到小点上方,可查看气象台名称。

然后点击查看天气观测和预报。

如需切换地图:点击带黑十字的绿色按钮放大地图;点击带横线的绿色按钮缩小地图;或者点击绿色箭头查看邻近地区的地图。


METAR-TAF: